Time;durP1;ratioP1;P1;durP2;ratioP2;P2;SDS_P1;SDS_P2;PMS_P1;PMS_P2;Temp;Humidity;BMP_temperature;BMP_pressure;BME280_temperature;BME280_humidity;BME280_pressure;Samples;Min_cycle;Max_cycle;Signal;HPM_P1;HPM_P2
2022/07/23 00:01:14;;;;;;;;;16.75;16.75;;;;;25.91;51.21;101296.72;4900919;29;47391;-48
2022/07/23 00:03:40;;;;;;;;;22.00;19.00;;;;;25.90;50.94;101295.88;4901182;28;45470;-47
2022/07/23 00:06:05;;;;;;;;;18.75;16.75;;;;;25.90;51.21;101298.53;4900920;29;45442;-46
2022/07/23 00:08:30;;;;;;;;;21.50;20.00;;;;;25.89;51.30;101291.53;4899457;28;46963;-48
2022/07/23 00:10:56;;;;;;;;;18.25;17.75;;;;;25.89;51.35;101294.19;4900938;29;45678;-53
2022/07/23 00:13:21;;;;;;;;;16.50;16.50;;;;;25.90;51.31;101301.19;4901483;29;45416;-58
2022/07/23 00:15:46;;;;;;;;;18.75;17.25;;;;;25.90;51.02;101295.88;4901189;28;45418;-63
2022/07/23 00:18:12;;;;;;;;;18.00;16.25;;;;;25.90;51.37;101295.88;4900410;28;48294;-47
2022/07/23 00:20:37;;;;;;;;;18.25;16.25;;;;;25.90;51.29;101295.88;4900816;29;45485;-46
2022/07/23 00:23:02;;;;;;;;;21.00;17.75;;;;;25.90;51.40;101297.69;4900663;29;45299;-54
2022/07/23 00:25:28;;;;;;;;;20.75;18.50;;;;;25.89;51.47;101303.97;4900990;29;45394;-50
2022/07/23 00:27:53;;;;;;;;;17.75;15.75;;;;;25.89;51.08;101299.50;4900871;29;45287;-50
2022/07/23 00:30:18;;;;;;;;;18.50;17.50;;;;;25.88;51.18;101292.47;4901061;29;45401;-52
2022/07/23 00:32:49;;;;;;;;;17.00;13.75;;;;;25.89;51.08;101291.53;4900834;29;45321;-53
2022/07/23 00:35:15;;;;;;;;;20.00;16.25;;;;;25.89;51.36;101296.84;4900742;29;45233;-56
2022/07/23 00:37:41;;;;;;;;;18.50;16.00;;;;;25.89;51.27;101296.00;4900532;28;45519;-53
2022/07/23 00:40:07;;;;;;;;;18.75;15.00;;;;;25.87;50.83;101290.78;4900126;29;45385;-59
2022/07/23 00:42:32;;;;;;;;;15.00;15.00;;;;;25.87;50.73;101290.78;4900620;28;45399;-56
2022/07/23 00:44:58;;;;;;;;;19.00;17.00;;;;;25.87;51.15;101287.28;4900266;29;45570;-60
2022/07/23 00:47:23;;;;;;;;;18.50;16.75;;;;;25.88;51.04;101289.00;4900412;28;49639;-49
2022/07/23 00:49:48;;;;;;;;;19.00;17.00;;;;;25.87;51.09;101290.78;4900762;29;45306;-63
2022/07/23 00:52:14;;;;;;;;;22.50;18.50;;;;;25.88;50.96;101289.00;4899640;29;45327;-52
2022/07/23 00:54:39;;;;;;;;;15.50;15.50;;;;;25.87;50.96;101280.16;4900550;28;45309;-53
2022/07/23 00:57:05;;;;;;;;;17.75;16.75;;;;;25.87;51.04;101279.31;4900025;29;45392;-56
2022/07/23 00:59:30;;;;;;;;;20.25;17.50;;;;;25.87;51.09;101282.81;4900402;29;45298;-48
2022/07/23 01:01:56;;;;;;;;;19.75;16.25;;;;;25.86;51.08;101289.06;4900071;28;45325;-56
2022/07/23 01:04:21;;;;;;;;;20.00;19.25;;;;;25.85;51.45;101275.91;4900775;29;45538;-49
2022/07/23 01:06:47;;;;;;;;;20.50;19.75;;;;;25.88;51.70;101286.34;4900030;29;45910;-50
2022/07/23 01:09:13;;;;;;;;;22.25;18.75;;;;;25.88;51.69;101279.19;4898599;29;45314;-49
2022/07/23 01:11:39;;;;;;;;;21.50;20.00;;;;;25.88;51.63;101279.19;4900267;29;45705;-52
2022/07/23 01:14:22;;;;;;;;;17.75;16.50;;;;;25.88;51.49;101289.81;4900160;28;45470;-52
2022/07/23 01:16:49;;;;;;;;;22.25;19.50;;;;;25.88;51.73;101278.38;4899957;28;45332;-47
2022/07/23 01:19:16;;;;;;;;;22.50;19.00;;;;;25.90;51.93;101287.06;4899875;29;45242;-51
2022/07/23 01:21:44;;;;;;;;;26.25;22.50;;;;;25.89;51.66;101283.56;4898568;29;45444;-56
2022/07/23 01:24:11;;;;;;;;;25.75;19.00;;;;;25.90;52.07;101287.91;4899984;28;45413;-60
2022/07/23 01:26:37;;;;;;;;;23.00;22.00;;;;;25.90;52.03;101285.25;4899726;29;45296;-57
2022/07/23 01:29:03;;;;;;;;;20.50;19.50;;;;;25.90;52.11;101279.94;4899620;29;45221;-53
2022/07/23 01:31:29;;;;;;;;;24.25;23.25;;;;;25.89;52.01;101274.75;4899883;29;45300;-47
2022/07/23 01:33:55;;;;;;;;;23.50;22.00;;;;;25.90;52.37;101279.94;4899793;28;45466;-48
2022/07/23 01:36:20;;;;;;;;;32.75;24.75;;;;;25.89;52.45;101282.72;4898738;28;47383;-46
2022/07/23 01:38:47;;;;;;;;;23.25;20.25;;;;;25.90;52.47;101290.56;4899870;29;45220;-54
2022/07/23 01:41:12;;;;;;;;;23.75;20.00;;;;;25.89;52.20;101278.25;4899608;28;45482;-55
2022/07/23 01:43:38;;;;;;;;;22.50;19.75;;;;;25.90;52.13;101279.13;4899916;29;45300;-55
2022/07/23 01:46:03;;;;;;;;;21.75;19.25;;;;;25.90;52.22;101279.94;4899297;29;45801;-52
2022/07/23 01:48:28;;;;;;;;;21.75;20.00;;;;;25.90;52.77;101277.28;4899779;29;45364;-48
2022/07/23 01:50:54;;;;;;;;;27.00;22.00;;;;;25.89;52.75;101277.41;4899531;28;45410;-49
2022/07/23 01:53:19;;;;;;;;;20.25;19.00;;;;;25.89;52.48;101272.94;4899954;29;45552;-59
2022/07/23 01:55:45;;;;;;;;;19.25;19.00;;;;;25.89;52.43;101277.41;4899494;29;45592;-60
2022/07/23 01:58:10;;;;;;;;;23.00;19.00;;;;;25.88;52.55;101268.56;4899162;28;45365;-52
2022/07/23 02:00:35;;;;;;;;;25.25;22.00;;;;;25.89;52.56;101275.59;4899550;28;45428;-52
2022/07/23 02:03:01;;;;;;;;;24.25;22.25;;;;;25.88;52.53;101265.94;4899256;29;45708;-58
2022/07/23 02:05:31;;;;;;;;;20.50;20.50;;;;;25.89;52.93;101272.09;4898101;29;45999;-55
2022/07/23 02:07:57;;;;;;;;;22.00;20.00;;;;;25.88;52.24;101268.56;4898790;29;45339;-58
2022/07/23 02:10:23;;;;;;;;;21.00;21.00;;;;;25.88;52.95;101273.88;4899648;28;45399;-56
2022/07/23 02:12:48;;;;;;;;;23.50;22.00;;;;;25.88;52.76;101275.72;4899623;29;45370;-47
2022/07/23 02:15:13;;;;;;;;;22.25;19.25;;;;;25.88;52.38;101270.41;4899119;29;46317;-55
2022/07/23 02:17:39;;;;;;;;;21.25;19.25;;;;;25.88;52.85;101273.88;4899242;29;45346;-50
2022/07/23 02:20:06;;;;;;;;;21.25;19.25;;;;;25.88;52.33;101275.72;4899039;28;45452;-53
2022/07/23 02:22:32;;;;;;;;;20.00;20.00;;;;;25.88;52.76;101281.84;4899388;29;45202;-49
2022/07/23 02:24:57;;;;;;;;;23.50;21.75;;;;;25.87;52.36;101272.19;4898803;29;45240;-53
2022/07/23 02:27:23;;;;;;;;;25.50;23.25;;;;;25.88;52.42;101281.03;4899334;29;45421;-57
2022/07/23 02:29:48;;;;;;;;;22.50;20.50;;;;;25.87;52.14;101280.16;4897936;29;45727;-48
2022/07/23 02:32:14;;;;;;;;;21.00;18.75;;;;;25.87;52.81;101285.47;4898985;29;45189;-47
2022/07/23 02:34:39;;;;;;;;;20.75;19.75;;;;;25.86;52.26;101289.06;4898756;29;46104;-53
2022/07/23 02:37:04;;;;;;;;;21.00;19.00;;;;;25.88;52.31;101286.34;4898714;29;45259;-51
2022/07/23 02:39:30;;;;;;;;;21.25;19.75;;;;;25.86;52.03;101288.25;4898896;29;45352;-48
2022/07/23 02:41:55;;;;;;;;;20.00;18.75;;;;;25.84;52.48;101285.72;4899040;29;45317;-53
2022/07/23 02:44:21;;;;;;;;;18.75;17.75;;;;;25.85;52.64;101292.69;4899072;29;45238;-54
2022/07/23 02:46:46;;;;;;;;;20.50;19.75;;;;;25.85;52.23;101298.00;4899010;29;45776;-52
2022/07/23 02:49:11;;;;;;;;;17.50;17.00;;;;;25.85;52.08;101297.16;4898604;28;45417;-58
2022/07/23 02:51:37;;;;;;;;;20.75;19.00;;;;;25.84;52.51;101291.03;4898859;29;45385;-62
2022/07/23 02:54:02;;;;;;;;;19.50;19.50;;;;;25.84;52.38;101292.81;4898195;29;46052;-54
2022/07/23 02:56:27;;;;;;;;;16.75;16.75;;;;;25.85;52.57;101298.00;4897329;29;45424;-56
2022/07/23 02:58:53;;;;;;;;;18.75;18.00;;;;;25.84;51.77;101291.03;4899000;29;45462;-50
2022/07/23 03:01:18;;;;;;;;;18.00;16.25;;;;;25.84;52.10;101298.97;4898964;29;45570;-45
2022/07/23 03:03:43;;;;;;;;;16.25;14.25;;;;;25.84;52.23;101308.75;4898055;29;50774;-57
2022/07/23 03:06:09;;;;;;;;;18.50;15.50;;;;;25.84;52.00;101311.41;4898232;29;45333;-56
2022/07/23 03:08:34;;;;;;;;;16.25;14.75;;;;;25.83;52.10;101309.69;4898746;29;45478;-59
2022/07/23 03:10:59;;;;;;;;;16.75;15.25;;;;;25.83;51.86;101315.00;4898534;29;45380;-63
2022/07/23 03:13:25;;;;;;;;;17.00;16.25;;;;;25.81;51.76;101317.78;4898323;29;46702;-55
2022/07/23 03:15:50;;;;;;;;;16.25;16.25;;;;;25.79;51.81;101314.38;4898504;28;45472;-50
2022/07/23 03:18:16;;;;;;;;;17.50;15.50;;;;;25.80;51.67;101318.72;4901565;28;45339;-52
2022/07/23 03:20:41;;;;;;;;;20.50;19.75;;;;;25.80;51.56;101321.38;4901787;29;45600;-55
2022/07/23 03:23:07;;;;;;;;;20.00;18.00;;;;;25.78;51.93;101325.94;4901275;29;46141;-63
2022/07/23 03:25:32;;;;;;;;;22.00;20.00;;;;;25.80;52.46;101317.91;4901653;29;45499;-60
2022/07/23 03:27:57;;;;;;;;;19.25;18.25;;;;;25.79;51.75;101319.69;4901753;28;45343;-49
2022/07/23 03:30:23;;;;;;;;;19.75;18.50;;;;;25.80;52.16;101321.38;4902424;29;45522;-47
2022/07/23 03:32:48;;;;;;;;;18.75;18.25;;;;;25.81;52.49;101327.53;4901705;29;45340;-48
2022/07/23 03:35:13;;;;;;;;;24.00;18.50;;;;;25.80;52.43;101321.38;4901606;29;45325;-47
2022/07/23 03:37:39;;;;;;;;;18.25;18.25;;;;;25.79;52.31;101327.66;4900533;29;45423;-51
2022/07/23 03:40:05;;;;;;;;;21.25;16.50;;;;;25.80;52.61;101331.19;4901739;28;45329;-47
2022/07/23 03:42:30;;;;;;;;;20.00;20.00;;;;;25.80;52.19;101326.69;4901489;29;47164;-47
2022/07/23 03:44:55;;;;;;;;;24.25;20.75;;;;;25.81;52.31;101327.53;4901240;29;45522;-51
2022/07/23 03:47:21;;;;;;;;;20.50;18.00;;;;;25.81;52.13;101327.53;4901997;29;45251;-48
2022/07/23 03:49:47;;;;;;;;;20.25;17.75;;;;;25.81;52.49;101333.72;4901832;29;45545;-50
2022/07/23 03:52:13;;;;;;;;;18.75;18.75;;;;;25.81;51.86;101328.41;4901140;29;46283;-50
2022/07/23 03:54:38;;;;;;;;;18.25;16.75;;;;;25.81;52.43;101333.72;4901285;28;46180;-48
2022/07/23 03:57:04;;;;;;;;;20.50;18.50;;;;;25.82;51.91;101329.22;4901349;28;45353;-53
2022/07/23 03:59:29;;;;;;;;;23.75;19.25;;;;;25.82;52.30;101332.75;4901751;29;45428;-59
2022/07/23 04:01:54;;;;;;;;;13.50;13.50;;;;;25.81;52.04;101335.50;4901058;28;45493;-59
2022/07/23 04:04:20;;;;;;;;;15.75;14.50;;;;;25.79;51.98;101335.63;4901862;28;45402;-64
2022/07/23 04:06:45;;;;;;;;;18.25;16.50;;;;;25.77;52.23;101335.75;4900168;28;45428;-61
2022/07/23 04:09:11;;;;;;;;;15.25;14.25;;;;;25.76;51.82;101335.81;4901520;28;45546;-60
2022/07/23 04:11:36;;;;;;;;;16.25;15.75;;;;;25.75;51.76;101344.75;4901264;29;46627;-61
2022/07/23 04:14:01;;;;;;;;;17.50;15.75;;;;;25.73;51.59;101336.91;4901114;28;45241;-60
2022/07/23 04:16:28;;;;;;;;;14.75;13.75;;;;;25.73;51.73;101339.56;4901283;29;45297;-52
2022/07/23 04:18:54;;;;;;;;;17.00;15.75;;;;;25.71;51.89;101343.28;4901610;29;45301;-47
2022/07/23 04:21:19;;;;;;;;;14.75;14.50;;;;;25.70;51.53;101352.19;4901360;29;46368;-53
2022/07/23 04:23:44;;;;;;;;;16.00;14.75;;;;;25.70;51.24;101346.88;4901036;29;45292;-50
2022/07/23 04:26:10;;;;;;;;;18.50;16.00;;;;;25.68;51.47;101339.03;4900763;29;45273;-48
2022/07/23 04:28:35;;;;;;;;;13.00;13.00;;;;;25.67;50.96;101347.09;4900247;29;45260;-54
2022/07/23 04:31:00;;;;;;;;;14.00;13.75;;;;;25.67;50.97;101347.09;4900655;29;46202;-54
2022/07/23 04:33:26;;;;;;;;;16.25;15.25;;;;;25.63;51.31;101342.00;4900964;29;45284;-62
2022/07/23 04:35:51;;;;;;;;;18.25;14.25;;;;;25.64;51.31;101345.50;4899999;29;45232;-62
2022/07/23 04:38:16;;;;;;;;;14.25;13.25;;;;;25.62;51.38;101344.75;4901082;29;45563;-63
2022/07/23 04:40:42;;;;;;;;;19.75;17.75;;;;;25.62;51.09;101344.75;4900775;29;46111;-47
2022/07/23 04:43:07;;;;;;;;;19.50;15.25;;;;;25.60;51.28;101350.19;4900397;29;45348;-49
2022/07/23 04:45:32;;;;;;;;;13.75;13.00;;;;;25.59;51.47;101353.78;4900928;29;45485;-46
2022/07/23 04:47:58;;;;;;;;;18.75;13.00;;;;;25.59;51.00;101344.97;4900732;28;45527;-52
2022/07/23 04:50:23;;;;;;;;;17.50;15.00;;;;;25.58;50.67;101353.88;4900925;29;46699;-48
2022/07/23 04:52:49;;;;;;;;;16.25;14.25;;;;;25.57;51.33;101352.22;4900935;29;45550;-52
2022/07/23 04:55:14;;;;;;;;;12.50;12.50;;;;;25.56;51.32;101356.66;4900551;29;45376;-51
2022/07/23 04:57:40;;;;;;;;;14.50;12.50;;;;;25.55;50.66;101360.25;4900875;28;45352;-54
2022/07/23 05:00:07;;;;;;;;;12.25;11.50;;;;;25.54;50.52;101355.91;4900245;29;45946;-49
2022/07/23 05:02:32;;;;;;;;;16.00;12.25;;;;;25.53;50.48;101362.16;4900229;29;45857;-46
2022/07/23 05:04:58;;;;;;;;;13.25;12.25;;;;;25.54;51.05;101357.72;4900475;29;45231;-47
2022/07/23 05:07:23;;;;;;;;;12.25;11.25;;;;;25.52;51.14;101357.81;4900977;29;45590;-50
2022/07/23 05:09:48;;;;;;;;;18.00;12.75;;;;;25.51;51.16;101358.78;4900828;29;45870;-53
2022/07/23 05:12:14;;;;;;;;;13.50;13.50;;;;;25.51;50.76;101363.22;4900168;28;45272;-52
2022/07/23 05:14:39;;;;;;;;;14.25;12.25;;;;;25.51;50.71;101364.09;4900092;29;50072;-61
2022/07/23 05:17:04;;;;;;;;;15.00;12.75;;;;;25.51;51.10;101369.41;4899036;28;45561;-59
2022/07/23 05:19:30;;;;;;;;;14.00;12.00;;;;;25.51;51.15;101366.75;4900219;29;46893;-56
2022/07/23 05:21:55;;;;;;;;;17.00;14.75;;;;;25.52;50.53;101363.09;4899860;29;45308;-56
2022/07/23 05:24:20;;;;;;;;;15.25;13.25;;;;;25.51;50.78;101369.41;4900738;29;45276;-62
2022/07/23 05:26:46;;;;;;;;;12.75;12.75;;;;;25.50;50.96;101359.75;4900582;29;45293;-59
2022/07/23 05:29:11;;;;;;;;;14.50;14.50;;;;;25.50;50.85;101361.53;4899760;28;45990;-51
2022/07/23 05:31:36;;;;;;;;;17.25;13.00;;;;;25.49;51.34;101360.69;4900098;28;45249;-48
2022/07/23 05:34:02;;;;;;;;;14.00;13.00;;;;;25.50;50.71;101361.53;4899995;29;45416;-47
2022/07/23 05:36:27;;;;;;;;;18.00;15.75;;;;;25.48;50.65;101359.00;4900231;29;45606;-53
2022/07/23 05:38:52;;;;;;;;;14.00;12.25;;;;;25.47;50.72;101363.44;4899391;29;60003;-49
2022/07/23 05:41:18;;;;;;;;;15.25;14.25;;;;;25.46;50.90;101355.59;4899722;28;45368;-49
2022/07/23 05:43:43;;;;;;;;;16.75;13.50;;;;;25.46;51.25;101359.09;4900141;29;45450;-52
2022/07/23 05:46:08;;;;;;;;;14.75;13.75;;;;;25.46;50.84;101356.44;4899993;29;45481;-51
2022/07/23 05:48:34;;;;;;;;;13.00;13.00;;;;;25.48;50.65;101359.00;4899751;29;45446;-51
2022/07/23 05:51:00;;;;;;;;;18.50;14.75;;;;;25.48;51.04;101359.00;4899558;29;45468;-56
2022/07/23 05:53:26;;;;;;;;;16.00;15.75;;;;;25.47;51.18;101363.44;4899716;29;45388;-57
2022/07/23 05:55:51;;;;;;;;;17.00;16.00;;;;;25.49;51.35;101366.00;4900309;29;45288;-52
2022/07/23 05:58:16;;;;;;;;;14.50;13.75;;;;;25.50;51.16;101377.44;4899517;29;45337;-50
2022/07/23 06:00:42;;;;;;;;;17.75;16.25;;;;;25.51;51.27;101371.19;4899570;28;45369;-53
2022/07/23 06:03:07;;;;;;;;;18.50;16.00;;;;;25.51;50.90;101374.72;4899503;29;45269;-51
2022/07/23 06:05:32;;;;;;;;;16.75;15.50;;;;;25.50;50.55;101378.31;4900057;29;45302;-52
2022/07/23 06:07:58;;;;;;;;;12.75;11.50;;;;;25.50;50.70;101370.34;4899340;29;45199;-58
2022/07/23 06:10:23;;;;;;;;;18.25;17.25;;;;;25.50;51.25;101383.63;4898586;29;45388;-50
2022/07/23 06:12:49;;;;;;;;;24.50;22.50;;;;;25.51;50.92;101372.06;4900053;29;45372;-57
2022/07/23 06:15:14;;;;;;;;;24.75;23.25;;;;;25.50;51.22;101380.97;4898219;29;45497;-52
2022/07/23 06:17:39;;;;;;;;;23.25;21.75;;;;;25.49;51.45;101384.56;4899404;29;46193;-53
2022/07/23 06:20:09;;;;;;;;;18.25;15.75;;;;;25.48;51.17;101388.19;4899079;29;45516;-47
2022/07/23 06:22:35;;;;;;;;;24.50;23.00;;;;;25.46;51.41;101390.09;4899450;29;45440;-51
2022/07/23 06:25:01;;;;;;;;;21.75;21.75;;;;;25.45;51.13;101389.25;4899338;29;45474;-50
2022/07/23 06:27:26;;;;;;;;;24.00;20.75;;;;;25.45;51.39;101388.38;4899228;29;46116;-51
2022/07/23 06:29:52;;;;;;;;;31.75;25.25;;;;;25.45;51.63;101391.03;4899523;29;45210;-55
2022/07/23 06:32:17;;;;;;;;;30.75;26.25;;;;;25.44;50.97;101394.63;4899076;28;45245;-55
2022/07/23 06:34:43;;;;;;;;;33.75;29.75;;;;;25.43;51.31;101392.94;4899415;28;45451;-52
2022/07/23 06:37:08;;;;;;;;;23.50;23.50;;;;;25.42;51.38;101401.84;4897693;29;46131;-50
2022/07/23 06:39:33;;;;;;;;;30.25;26.50;;;;;25.41;51.15;101406.31;4899167;29;45348;-50
2022/07/23 06:42:00;;;;;;;;;29.75;26.75;;;;;25.40;51.89;101407.28;4898738;29;45483;-51
2022/07/23 06:44:26;;;;;;;;;29.00;26.75;;;;;25.40;51.59;101411.72;4899350;29;45638;-52
2022/07/23 06:46:51;;;;;;;;;31.25;27.50;;;;;25.40;51.73;101411.72;4899258;29;46305;-57
2022/07/23 06:49:17;;;;;;;;;32.25;29.50;;;;;25.39;51.48;101415.31;4898723;29;45354;-48
2022/07/23 06:51:42;;;;;;;;;31.25;25.75;;;;;25.39;51.66;101415.31;4901393;29;45242;-57
2022/07/23 06:54:07;;;;;;;;;30.75;28.75;;;;;25.38;51.98;101413.59;4902289;29;45523;-50
2022/07/23 06:56:33;;;;;;;;;34.25;30.50;;;;;25.38;51.78;101405.66;4902303;29;46293;-46
2022/07/23 06:58:58;;;;;;;;;29.00;27.00;;;;;25.37;52.23;101409.25;4902099;29;45404;-46
2022/07/23 07:01:23;;;;;;;;;36.50;30.50;;;;;25.37;51.79;101411.91;4902115;28;45736;-47
2022/07/23 07:03:49;;;;;;;;;24.25;22.75;;;;;25.35;51.76;101417.31;4902626;29;45438;-49
2022/07/23 07:06:14;;;;;;;;;30.75;26.75;;;;;25.36;52.19;101413.69;4901938;28;45350;-47
2022/07/23 07:08:40;;;;;;;;;36.50;32.25;;;;;25.36;51.95;101423.47;4902177;29;45313;-47
2022/07/23 07:11:05;;;;;;;;;36.75;30.50;;;;;25.35;51.99;101421.75;4901999;29;45389;-51
2022/07/23 07:13:30;;;;;;;;;34.25;30.75;;;;;25.35;51.82;101421.75;4902310;29;45317;-47
2022/07/23 07:15:56;;;;;;;;;32.00;28.50;;;;;25.35;52.12;101429.72;4901687;28;46298;-51
2022/07/23 07:18:22;;;;;;;;;34.50;30.75;;;;;25.34;52.04;101434.19;4902383;29;45582;-52
2022/07/23 07:20:47;;;;;;;;;31.50;29.75;;;;;25.35;52.46;101430.59;4902147;29;45375;-49
2022/07/23 07:23:12;;;;;;;;;37.25;30.25;;;;;25.34;52.08;101439.50;4902040;29;45593;-53
2022/07/23 07:25:38;;;;;;;;;43.00;32.50;;;;;25.34;52.28;101442.16;4901821;29;45945;-51
2022/07/23 07:28:03;;;;;;;;;36.75;31.00;;;;;25.34;52.41;101457.22;4901690;29;45992;-53
2022/07/23 07:30:29;;;;;;;;;39.00;31.75;;;;;25.36;52.59;101450.00;4901858;28;45431;-49
2022/07/23 07:32:54;;;;;;;;;38.50;33.75;;;;;25.35;52.35;101459.78;4901822;29;45582;-50
2022/07/23 07:35:19;;;;;;;;;38.75;32.25;;;;;25.35;52.40;101453.59;4902022;29;46299;-48
2022/07/23 07:37:45;;;;;;;;;40.50;33.75;;;;;25.35;52.54;101458.91;4901666;29;45401;-50
2022/07/23 07:40:10;;;;;;;;;45.75;35.25;;;;;25.35;52.25;101453.59;4901569;29;45325;-49
2022/07/23 07:42:44;;;;;;;;;36.25;32.50;;;;;25.35;52.33;101458.91;4901830;29;45542;-51
2022/07/23 07:45:10;;;;;;;;;40.25;32.25;;;;;25.34;52.60;101458.06;4901415;29;46014;-49
2022/07/23 07:47:35;;;;;;;;;42.50;33.25;;;;;25.33;52.22;101453.72;4901583;28;45200;-51
2022/07/23 07:50:01;;;;;;;;;40.00;33.75;;;;;25.33;51.89;101461.69;4901490;29;45220;-50
2022/07/23 07:52:26;;;;;;;;;36.50;29.00;;;;;25.35;52.07;101469.53;4901699;28;45328;-53
2022/07/23 07:54:51;;;;;;;;;40.00;32.50;;;;;25.34;52.22;101470.47;4901636;29;45957;-47
2022/07/23 07:57:17;;;;;;;;;44.00;34.75;;;;;25.35;52.20;101474.81;4900921;29;45392;-49
2022/07/23 07:59:42;;;;;;;;;45.50;34.75;;;;;25.35;52.09;101474.81;4901609;29;45405;-51
2022/07/23 08:02:07;;;;;;;;;44.00;34.75;;;;;25.37;52.25;101478.25;4901290;28;45327;-48
2022/07/23 08:04:33;;;;;;;;;38.75;33.25;;;;;25.36;52.63;101472.06;4901258;28;45263;-48
2022/07/23 08:06:58;;;;;;;;;45.67;33.67;;;;;25.36;52.27;101472.06;4900884;29;51821;-54
2022/07/23 08:09:23;;;;;;;;;42.75;32.50;;;;;25.37;52.11;101467.63;4901341;29;45379;-46
2022/07/23 08:11:51;;;;;;;;;41.75;33.50;;;;;25.37;52.38;101472.94;4901654;29;45566;-51
2022/07/23 08:14:17;;;;;;;;;34.00;30.75;;;;;25.36;51.94;101474.72;4899591;29;47181;-49
2022/07/23 08:16:42;;;;;;;;;38.75;32.25;;;;;25.36;52.05;101474.72;4901154;29;45347;-48
2022/07/23 08:19:07;;;;;;;;;35.25;29.50;;;;;25.35;52.15;101469.53;4900770;29;47901;-50
2022/07/23 08:21:33;;;;;;;;;38.33;33.67;;;;;25.37;52.29;101478.25;4900997;29;47359;-49
2022/07/23 08:23:58;;;;;;;;;40.75;31.50;;;;;25.37;52.05;101475.59;4900846;29;46580;-47
2022/07/23 08:26:23;;;;;;;;;34.00;31.33;;;;;25.37;52.19;101483.53;4900803;29;49991;-51
2022/07/23 08:28:49;;;;;;;;;43.50;33.00;;;;;25.37;52.10;101480.91;4901344;29;45377;-46
2022/07/23 08:31:16;;;;;;;;;37.00;31.75;;;;;25.38;52.40;101485.25;4900993;29;45334;-46
2022/07/23 08:33:41;;;;;;;;;37.25;31.00;;;;;25.39;52.82;101497.56;4900749;29;46243;-48
2022/07/23 10:04:22;;;;;;;;;26.50;24.00;;;;;25.69;50.83;101507.97;5354259;23;45689;-46
2022/07/23 10:06:52;;;;;;;;;28.50;26.50;;;;;25.70;50.95;101498.22;4898363;28;45455;-44
2022/07/23 10:09:23;;;;;;;;;31.25;25.75;;;;;25.70;50.49;101492.91;4898763;29;45455;-39
2022/07/23 10:11:50;;;;;;;;;30.75;26.75;;;;;25.70;50.84;101500.88;4899353;29;45362;-41
2022/07/23 10:14:16;;;;;;;;;27.50;25.75;;;;;25.71;51.09;101499.91;4898401;29;45444;-45
2022/07/23 10:16:41;;;;;;;;;30.75;27.25;;;;;25.71;50.90;101498.09;4898379;29;45856;-38
2022/07/23 10:19:07;;;;;;;;;29.25;25.00;;;;;25.71;50.75;101498.09;4898397;29;45384;-42
2022/07/23 10:21:49;;;;;;;;;29.50;24.50;;;;;25.72;51.05;101494.50;4898866;29;45519;-41
2022/07/23 10:24:51;;;;;;;;;27.75;27.25;;;;;25.74;50.79;101494.41;4898430;28;46090;-42
2022/07/23 10:27:47;;;;;;;;;29.00;27.75;;;;;25.75;51.05;101498.72;4898025;29;45368;-43
2022/07/23 10:30:18;;;;;;;;;35.75;29.75;;;;;25.75;51.12;101502.25;4898342;29;45484;-40
2022/07/23 10:33:11;;;;;;;;;26.50;24.50;;;;;25.76;50.60;101497.78;4898792;29;45368;-40
2022/07/23 10:35:59;;;;;;;;;29.75;27.00;;;;;25.75;50.68;101488.97;4898042;29;45407;-45
2022/07/23 10:38:33;;;;;;;;;26.00;25.00;;;;;25.77;50.84;101497.69;4898340;29;45650;-44
2022/07/23 10:41:04;;;;;;;;;28.25;24.25;;;;;25.77;50.97;101497.69;4897037;29;45282;-40
2022/07/23 10:43:30;;;;;;;;;27.25;24.75;;;;;25.79;50.53;101505.56;4898985;29;45507;-39
2022/07/23 10:46:16;;;;;;;;;29.75;24.50;;;;;25.81;50.26;101518.72;4897918;29;45447;-42
2022/07/23 10:48:41;;;;;;;;;26.25;24.75;;;;;25.81;50.66;101514.25;4898252;29;45273;-44
2022/07/23 10:51:12;;;;;;;;;28.25;26.75;;;;;25.82;50.77;101515.09;4898035;29;45292;-40
2022/07/23 10:53:58;;;;;;;;;31.50;28.00;;;;;25.82;50.58;101521.28;4898556;29;45510;-43
2022/07/23 10:56:54;;;;;;;;;24.25;22.25;;;;;25.83;50.38;101512.38;4898119;28;46634;-39
2022/07/23 10:59:19;;;;;;;;;25.75;24.75;;;;;25.83;51.00;101512.38;4898304;29;45894;-43
2022/07/23 11:01:45;;;;;;;;;27.00;25.75;;;;;25.85;50.55;101520.22;4898413;29;45324;-39
2022/07/23 11:04:11;;;;;;;;;25.50;24.25;;;;;25.87;50.88;101529.78;4898298;29;45787;-43
2022/07/23 11:06:49;;;;;;;;;31.25;27.25;;;;;25.87;51.07;101537.75;4898204;29;46223;-41
2022/07/23 11:09:25;;;;;;;;;27.25;25.00;;;;;25.87;50.92;101545.69;4897900;29;45228;-38
2022/07/23 11:12:13;;;;;;;;;31.75;27.25;;;;;25.88;50.66;101542.09;4898370;29;45394;-40
2022/07/23 11:15:02;;;;;;;;;26.50;24.25;;;;;25.88;50.92;101550.06;4898339;29;45487;-41
2022/07/23 11:17:28;;;;;;;;;27.50;21.75;;;;;25.90;50.90;101548.16;4893045;28;46532;-38
2022/07/23 11:20:09;;;;;;;;;27.50;25.25;;;;;25.90;50.92;101545.50;4897727;29;45908;-38
2022/07/23 11:23:02;;;;;;;;;24.00;23.25;;;;;25.90;50.61;101542.84;4898229;29;45553;-40
2022/07/23 11:25:33;;;;;;;;;25.75;23.25;;;;;25.91;50.95;101549.88;4897081;29;46679;-42
2022/07/23 11:28:15;;;;;;;;;28.50;24.75;;;;;25.91;50.63;101546.34;4898157;29;46750;-40
2022/07/23 11:30:45;;;;;;;;;28.25;25.00;;;;;25.92;50.80;101551.56;4896754;29;45982;-39
2022/07/23 11:33:10;;;;;;;;;26.50;24.75;;;;;25.92;50.45;101546.25;4896499;29;45380;-39
2022/07/23 11:35:38;;;;;;;;;24.33;23.33;;;;;25.93;50.68;101542.66;4898197;29;45484;-40
2022/07/23 11:38:06;;;;;;;;;28.75;24.25;;;;;25.93;50.54;101550.63;4899945;28;46235;-38
2022/07/23 11:40:32;;;;;;;;;28.25;25.25;;;;;25.93;50.24;101540.00;4901176;29;45392;-38
2022/07/23 11:42:59;;;;;;;;;26.50;26.50;;;;;25.95;50.35;101536.38;4901257;29;45209;-39
2022/07/23 11:45:31;;;;;;;;;24.75;23.25;;;;;25.95;50.24;101539.03;4901326;28;45501;-39
2022/07/23 11:47:56;;;;;;;;;27.50;26.00;;;;;25.95;50.41;101547.84;4900903;29;47037;-39
2022/07/23 11:50:25;;;;;;;;;23.00;23.00;;;;;25.96;50.40;101543.41;4900652;29;51088;-40
2022/07/23 11:52:50;;;;;;;;;25.50;24.25;;;;;25.95;50.64;101544.34;4900847;29;45507;-40
2022/07/23 11:55:16;;;;;;;;;31.25;26.00;;;;;25.95;50.24;101545.19;4900902;29;45387;-43
2022/07/23 11:57:43;;;;;;;;;26.50;24.75;;;;;25.96;50.50;101538.09;4900826;29;45968;-41
2022/07/23 12:00:14;;;;;;;;;28.00;25.25;;;;;25.96;50.23;101546.06;4900488;29;45862;-40
2022/07/23 12:02:42;;;;;;;;;29.00;22.50;;;;;25.95;50.07;101534.56;4900636;29;45391;-40
2022/07/23 12:05:11;;;;;;;;;25.00;23.75;;;;;25.96;50.36;101538.09;4900435;29;45395;-40
2022/07/23 12:07:39;;;;;;;;;27.00;24.50;;;;;25.95;50.09;101526.59;4900553;29;46160;-40
2022/07/23 12:10:35;;;;;;;;;27.00;23.25;;;;;25.95;50.18;101525.78;4900375;29;45965;-40
2022/07/23 12:13:07;;;;;;;;;28.00;24.50;;;;;25.97;50.30;101534.47;4900954;29;45395;-41
2022/07/23 12:15:38;;;;;;;;;27.00;25.50;;;;;25.97;50.08;101530.00;4899825;29;45300;-38
2022/07/23 12:18:04;;;;;;;;;24.75;23.00;;;;;25.97;50.14;101532.66;4900223;29;47397;-42
2022/07/23 12:20:33;;;;;;;;;26.00;21.50;;;;;25.98;50.16;101530.84;4900891;28;45934;-39
2022/07/23 12:23:02;;;;;;;;;31.75;25.25;;;;;25.98;50.01;101528.19;4900666;29;45475;-42
2022/07/23 12:25:36;;;;;;;;;27.75;25.00;;;;;25.99;50.03;101532.56;4899445;29;45426;-44
2022/07/23 12:28:11;;;;;;;;;26.75;25.75;;;;;25.99;49.98;101528.09;4900442;29;46572;-44
2022/07/23 12:30:40;;;;;;;;;26.00;23.75;;;;;25.99;50.23;101521.94;4900189;29;45818;-38
2022/07/23 12:33:09;;;;;;;;;32.00;24.25;;;;;26.01;50.14;101525.34;4900081;29;45302;-40
2022/07/23 12:35:41;;;;;;;;;26.00;23.75;;;;;26.01;49.95;101530.66;4900457;28;45337;-42
2022/07/23 12:38:09;;;;;;;;;25.75;23.00;;;;;26.01;49.83;101530.66;4899924;29;47000;-44